sensor_id;sensor_type;location;lat;lon;timestamp;P1;durP1;ratioP1;P2;durP2;ratioP2
51907;SDS011;39320;53.214;6.556;2022-08-01T00:01:00;5.38;;;2.58;;
51907;SDS011;39320;53.214;6.556;2022-08-01T00:03:26;4.20;;;3.03;;
51907;SDS011;39320;53.214;6.556;2022-08-01T00:05:51;5.85;;;2.63;;
51907;SDS011;39320;53.214;6.556;2022-08-01T00:08:17;3.97;;;2.65;;
51907;SDS011;39320;53.214;6.556;2022-08-01T00:10:43;3.95;;;2.47;;
51907;SDS011;39320;53.214;6.556;2022-08-01T00:13:09;4.90;;;3.30;;
51907;SDS011;39320;53.214;6.556;2022-08-01T00:15:34;7.05;;;3.80;;
51907;SDS011;39320;53.214;6.556;2022-08-01T00:18:00;5.80;;;2.75;;
51907;SDS011;39320;53.214;6.556;2022-08-01T00:20:26;4.47;;;3.08;;
51907;SDS011;39320;53.214;6.556;2022-08-01T00:22:52;4.93;;;3.15;;
51907;SDS011;39320;53.214;6.556;2022-08-01T00:25:18;3.40;;;2.50;;
51907;SDS011;39320;53.214;6.556;2022-08-01T00:27:43;4.07;;;2.60;;
51907;SDS011;39320;53.214;6.556;2022-08-01T00:30:09;5.65;;;2.97;;
51907;SDS011;39320;53.214;6.556;2022-08-01T00:32:35;4.70;;;2.63;;
51907;SDS011;39320;53.214;6.556;2022-08-01T00:35:01;6.25;;;3.05;;
51907;SDS011;39320;53.214;6.556;2022-08-01T00:37:26;5.45;;;2.67;;
51907;SDS011;39320;53.214;6.556;2022-08-01T00:39:52;4.15;;;2.10;;
51907;SDS011;39320;53.214;6.556;2022-08-01T00:42:18;4.88;;;3.17;;
51907;SDS011;39320;53.214;6.556;2022-08-01T00:44:44;4.97;;;2.92;;
51907;SDS011;39320;53.214;6.556;2022-08-01T00:47:10;5.35;;;2.67;;
51907;SDS011;39320;53.214;6.556;2022-08-01T00:49:36;5.10;;;2.65;;
51907;SDS011;39320;53.214;6.556;2022-08-01T00:52:02;6.10;;;3.05;;
51907;SDS011;39320;53.214;6.556;2022-08-01T00:54:29;5.55;;;2.70;;
51907;SDS011;39320;53.214;6.556;2022-08-01T00:56:56;5.47;;;3.05;;
51907;SDS011;39320;53.214;6.556;2022-08-01T00:59:22;4.68;;;3.33;;
51907;SDS011;39320;53.214;6.556;2022-08-01T01:01:49;4.82;;;2.42;;
51907;SDS011;39320;53.214;6.556;2022-08-01T01:04:15;8.02;;;3.03;;
51907;SDS011;39320;53.214;6.556;2022-08-01T01:06:59;6.70;;;2.85;;
51907;SDS011;39320;53.214;6.556;2022-08-01T01:09:56;3.53;;;2.50;;
51907;SDS011;39320;53.214;6.556;2022-08-01T01:15:30;4.10;;;2.50;;
51907;SDS011;39320;53.214;6.556;2022-08-01T01:18:28;5.10;;;2.70;;
51907;SDS011;39320;53.214;6.556;2022-08-01T01:26:52;6.20;;;2.60;;
51907;SDS011;39320;53.214;6.556;2022-08-01T01:29:30;4.47;;;1.90;;
51907;SDS011;39320;53.214;6.556;2022-08-01T01:32:07;5.22;;;2.28;;
51907;SDS011;39320;53.214;6.556;2022-08-01T01:34:40;5.05;;;2.00;;
51907;SDS011;39320;53.214;6.556;2022-08-01T01:37:12;4.10;;;1.80;;
51907;SDS011;39320;53.214;6.556;2022-08-01T01:39:42;3.78;;;1.95;;
51907;SDS011;39320;53.214;6.556;2022-08-01T01:42:09;5.88;;;2.17;;
51907;SDS011;39320;53.214;6.556;2022-08-01T01:44:36;3.47;;;2.00;;
51907;SDS011;39320;53.214;6.556;2022-08-01T01:47:03;3.90;;;2.15;;
51907;SDS011;39320;53.214;6.556;2022-08-01T01:49:30;8.15;;;2.28;;
51907;SDS011;39320;53.214;6.556;2022-08-01T01:51:58;8.60;;;3.30;;
51907;SDS011;39320;53.214;6.556;2022-08-01T01:54:27;4.90;;;2.13;;
51907;SDS011;39320;53.214;6.556;2022-08-01T01:56:57;4.93;;;2.50;;
51907;SDS011;39320;53.214;6.556;2022-08-01T01:59:25;7.90;;;2.78;;
51907;SDS011;39320;53.214;6.556;2022-08-01T02:01:55;7.30;;;2.53;;
51907;SDS011;39320;53.214;6.556;2022-08-01T02:04:23;5.18;;;2.25;;
51907;SDS011;39320;53.214;6.556;2022-08-01T02:06:51;4.45;;;1.98;;
51907;SDS011;39320;53.214;6.556;2022-08-01T02:09:18;4.95;;;2.13;;
51907;SDS011;39320;53.214;6.556;2022-08-01T02:11:47;4.97;;;2.13;;
51907;SDS011;39320;53.214;6.556;2022-08-01T02:14:14;5.25;;;2.55;;
51907;SDS011;39320;53.214;6.556;2022-08-01T02:16:41;5.05;;;1.50;;
51907;SDS011;39320;53.214;6.556;2022-08-01T02:19:09;3.50;;;1.58;;
51907;SDS011;39320;53.214;6.556;2022-08-01T02:24:42;5.47;;;1.90;;
51907;SDS011;39320;53.214;6.556;2022-08-01T02:27:15;4.30;;;1.33;;
51907;SDS011;39320;53.214;6.556;2022-08-01T02:30:01;5.32;;;1.55;;
51907;SDS011;39320;53.214;6.556;2022-08-01T02:32:40;7.05;;;2.40;;
51907;SDS011;39320;53.214;6.556;2022-08-01T02:35:09;6.20;;;2.08;;
51907;SDS011;39320;53.214;6.556;2022-08-01T02:37:39;7.50;;;2.28;;
51907;SDS011;39320;53.214;6.556;2022-08-01T02:40:06;7.43;;;2.28;;
51907;SDS011;39320;53.214;6.556;2022-08-01T02:42:35;7.15;;;2.78;;
51907;SDS011;39320;53.214;6.556;2022-08-01T02:45:03;5.18;;;2.67;;
51907;SDS011;39320;53.214;6.556;2022-08-01T02:47:33;9.50;;;3.25;;
51907;SDS011;39320;53.214;6.556;2022-08-01T02:50:02;7.05;;;2.85;;
51907;SDS011;39320;53.214;6.556;2022-08-01T02:52:29;10.30;;;3.35;;
51907;SDS011;39320;53.214;6.556;2022-08-01T02:54:56;7.40;;;3.00;;
51907;SDS011;39320;53.214;6.556;2022-08-01T02:57:25;12.00;;;3.17;;
51907;SDS011;39320;53.214;6.556;2022-08-01T02:59:51;6.25;;;2.85;;
51907;SDS011;39320;53.214;6.556;2022-08-01T03:02:19;6.72;;;2.72;;
51907;SDS011;39320;53.214;6.556;2022-08-01T03:04:45;8.60;;;4.15;;
51907;SDS011;39320;53.214;6.556;2022-08-01T03:07:13;10.27;;;2.90;;
51907;SDS011;39320;53.214;6.556;2022-08-01T03:09:43;10.48;;;2.72;;
51907;SDS011;39320;53.214;6.556;2022-08-01T03:12:11;6.90;;;3.22;;
51907;SDS011;39320;53.214;6.556;2022-08-01T03:14:40;9.25;;;2.80;;
51907;SDS011;39320;53.214;6.556;2022-08-01T03:17:08;6.47;;;2.45;;
51907;SDS011;39320;53.214;6.556;2022-08-01T03:19:35;6.88;;;2.83;;
51907;SDS011;39320;53.214;6.556;2022-08-01T03:22:03;8.27;;;3.20;;
51907;SDS011;39320;53.214;6.556;2022-08-01T03:24:33;8.70;;;3.72;;
51907;SDS011;39320;53.214;6.556;2022-08-01T03:26:59;10.63;;;3.08;;
51907;SDS011;39320;53.214;6.556;2022-08-01T03:29:27;8.10;;;3.20;;
51907;SDS011;39320;53.214;6.556;2022-08-01T03:31:54;6.50;;;2.75;;
51907;SDS011;39320;53.214;6.556;2022-08-01T03:34:22;6.05;;;2.75;;
51907;SDS011;39320;53.214;6.556;2022-08-01T03:37:00;6.65;;;3.42;;
51907;SDS011;39320;53.214;6.556;2022-08-01T03:39:34;8.98;;;3.13;;
51907;SDS011;39320;53.214;6.556;2022-08-01T03:42:23;7.22;;;3.13;;
51907;SDS011;39320;53.214;6.556;2022-08-01T03:44:54;12.82;;;3.00;;
51907;SDS011;39320;53.214;6.556;2022-08-01T03:47:31;5.28;;;3.20;;
51907;SDS011;39320;53.214;6.556;2022-08-01T03:50:00;9.57;;;2.88;;
51907;SDS011;39320;53.214;6.556;2022-08-01T03:52:29;6.68;;;2.97;;
51907;SDS011;39320;53.214;6.556;2022-08-01T03:54:58;7.22;;;3.08;;
51907;SDS011;39320;53.214;6.556;2022-08-01T03:57:30;8.52;;;3.10;;
51907;SDS011;39320;53.214;6.556;2022-08-01T03:59:59;9.52;;;3.20;;
51907;SDS011;39320;53.214;6.556;2022-08-01T04:02:28;9.40;;;3.50;;
51907;SDS011;39320;53.214;6.556;2022-08-01T04:04:54;9.13;;;2.90;;
51907;SDS011;39320;53.214;6.556;2022-08-01T04:07:24;7.25;;;3.20;;
51907;SDS011;39320;53.214;6.556;2022-08-01T04:09:54;6.20;;;2.60;;
51907;SDS011;39320;53.214;6.556;2022-08-01T04:12:20;10.18;;;3.50;;
51907;SDS011;39320;53.214;6.556;2022-08-01T04:14:47;9.82;;;3.30;;
51907;SDS011;39320;53.214;6.556;2022-08-01T04:17:14;8.63;;;3.05;;
51907;SDS011;39320;53.214;6.556;2022-08-01T04:19:43;6.43;;;2.60;;
51907;SDS011;39320;53.214;6.556;2022-08-01T04:22:10;6.95;;;3.00;;
51907;SDS011;39320;53.214;6.556;2022-08-01T04:24:38;8.00;;;3.20;;
51907;SDS011;39320;53.214;6.556;2022-08-01T04:27:08;9.02;;;3.25;;
51907;SDS011;39320;53.214;6.556;2022-08-01T04:29:38;6.93;;;2.80;;
51907;SDS011;39320;53.214;6.556;2022-08-01T04:32:07;7.45;;;3.10;;
51907;SDS011;39320;53.214;6.556;2022-08-01T04:34:36;8.38;;;2.75;;
51907;SDS011;39320;53.214;6.556;2022-08-01T04:37:05;7.20;;;3.10;;
51907;SDS011;39320;53.214;6.556;2022-08-01T04:39:33;8.88;;;2.80;;
51907;SDS011;39320;53.214;6.556;2022-08-01T04:42:02;7.55;;;2.97;;
51907;SDS011;39320;53.214;6.556;2022-08-01T04:44:30;8.90;;;3.10;;
51907;SDS011;39320;53.214;6.556;2022-08-01T04:46:58;7.15;;;2.67;;
51907;SDS011;39320;53.214;6.556;2022-08-01T04:49:26;8.75;;;3.22;;
51907;SDS011;39320;53.214;6.556;2022-08-01T04:51:53;10.93;;;3.15;;
51907;SDS011;39320;53.214;6.556;2022-08-01T04:54:30;12.77;;;2.97;;
51907;SDS011;39320;53.214;6.556;2022-08-01T04:56:58;8.43;;;3.20;;
51907;SDS011;39320;53.214;6.556;2022-08-01T04:59:34;6.63;;;2.88;;
51907;SDS011;39320;53.214;6.556;2022-08-01T05:02:05;7.00;;;2.97;;
51907;SDS011;39320;53.214;6.556;2022-08-01T05:04:42;10.82;;;3.40;;
51907;SDS011;39320;53.214;6.556;2022-08-01T05:07:08;10.13;;;3.47;;
51907;SDS011;39320;53.214;6.556;2022-08-01T05:09:35;12.73;;;3.10;;
51907;SDS011;39320;53.214;6.556;2022-08-01T05:12:02;8.23;;;3.65;;
51907;SDS011;39320;53.214;6.556;2022-08-01T05:14:30;11.50;;;3.58;;
51907;SDS011;39320;53.214;6.556;2022-08-01T05:17:00;10.57;;;3.47;;
51907;SDS011;39320;53.214;6.556;2022-08-01T05:19:38;9.00;;;3.22;;
51907;SDS011;39320;53.214;6.556;2022-08-01T05:22:05;15.95;;;3.50;;
51907;SDS011;39320;53.214;6.556;2022-08-01T05:24:33;12.10;;;4.00;;
51907;SDS011;39320;53.214;6.556;2022-08-01T05:27:00;8.80;;;4.00;;
51907;SDS011;39320;53.214;6.556;2022-08-01T05:29:26;14.20;;;3.65;;
51907;SDS011;39320;53.214;6.556;2022-08-01T05:31:52;13.70;;;3.60;;
51907;SDS011;39320;53.214;6.556;2022-08-01T05:34:19;13.68;;;3.58;;
51907;SDS011;39320;53.214;6.556;2022-08-01T05:36:45;10.07;;;3.30;;
51907;SDS011;39320;53.214;6.556;2022-08-01T05:39:12;11.65;;;3.78;;
51907;SDS011;39320;53.214;6.556;2022-08-01T05:41:38;13.80;;;4.03;;
51907;SDS011;39320;53.214;6.556;2022-08-01T05:44:05;13.00;;;4.10;;
51907;SDS011;39320;53.214;6.556;2022-08-01T05:46:31;14.73;;;3.83;;
51907;SDS011;39320;53.214;6.556;2022-08-01T05:49:00;13.35;;;3.65;;
51907;SDS011;39320;53.214;6.556;2022-08-01T05:51:27;11.55;;;4.03;;
51907;SDS011;39320;53.214;6.556;2022-08-01T05:53:53;12.15;;;3.60;;
51907;SDS011;39320;53.214;6.556;2022-08-01T05:56:20;17.52;;;4.70;;
51907;SDS011;39320;53.214;6.556;2022-08-01T05:58:46;11.38;;;3.65;;
51907;SDS011;39320;53.214;6.556;2022-08-01T06:01:12;10.75;;;3.88;;
51907;SDS011;39320;53.214;6.556;2022-08-01T06:03:38;11.35;;;3.95;;
51907;SDS011;39320;53.214;6.556;2022-08-01T06:06:03;13.10;;;3.40;;
51907;SDS011;39320;53.214;6.556;2022-08-01T06:08:30;16.33;;;3.85;;
51907;SDS011;39320;53.214;6.556;2022-08-01T06:10:56;17.88;;;3.67;;
51907;SDS011;39320;53.214;6.556;2022-08-01T06:13:22;13.38;;;3.40;;
51907;SDS011;39320;53.214;6.556;2022-08-01T06:15:48;12.48;;;3.58;;
51907;SDS011;39320;53.214;6.556;2022-08-01T06:18:14;11.48;;;3.35;;
51907;SDS011;39320;53.214;6.556;2022-08-01T06:20:40;10.13;;;3.33;;
51907;SDS011;39320;53.214;6.556;2022-08-01T06:23:07;19.10;;;4.22;;
51907;SDS011;39320;53.214;6.556;2022-08-01T06:25:33;11.25;;;3.10;;
51907;SDS011;39320;53.214;6.556;2022-08-01T06:27:59;12.63;;;3.55;;
51907;SDS011;39320;53.214;6.556;2022-08-01T06:30:25;11.35;;;3.92;;
51907;SDS011;39320;53.214;6.556;2022-08-01T06:32:51;14.90;;;3.75;;
51907;SDS011;39320;53.214;6.556;2022-08-01T06:35:17;9.90;;;3.13;;
51907;SDS011;39320;53.214;6.556;2022-08-01T06:37:43;12.90;;;3.53;;
51907;SDS011;39320;53.214;6.556;2022-08-01T06:40:10;11.30;;;3.72;;
51907;SDS011;39320;53.214;6.556;2022-08-01T06:42:36;11.80;;;3.28;;
51907;SDS011;39320;53.214;6.556;2022-08-01T06:47:29;12.00;;;3.08;;
51907;SDS011;39320;53.214;6.556;2022-08-01T06:49:54;11.73;;;3.85;;
51907;SDS011;39320;53.214;6.556;2022-08-01T06:52:20;13.73;;;3.28;;
51907;SDS011;39320;53.214;6.556;2022-08-01T06:54:46;12.73;;;3.67;;
51907;SDS011;39320;53.214;6.556;2022-08-01T06:57:11;10.55;;;4.05;;
51907;SDS011;39320;53.214;6.556;2022-08-01T06:59:37;14.77;;;3.33;;
51907;SDS011;39320;53.214;6.556;2022-08-01T07:02:03;14.50;;;3.45;;
51907;SDS011;39320;53.214;6.556;2022-08-01T07:04:29;9.25;;;3.10;;
51907;SDS011;39320;53.214;6.556;2022-08-01T07:06:55;13.48;;;4.07;;
51907;SDS011;39320;53.214;6.556;2022-08-01T07:09:21;12.82;;;2.97;;
51907;SDS011;39320;53.214;6.556;2022-08-01T07:11:46;12.27;;;3.60;;
51907;SDS011;39320;53.214;6.556;2022-08-01T07:14:12;8.52;;;3.35;;
51907;SDS011;39320;53.214;6.556;2022-08-01T07:16:38;13.00;;;2.85;;
51907;SDS011;39320;53.214;6.556;2022-08-01T07:19:04;11.60;;;3.47;;
51907;SDS011;39320;53.214;6.556;2022-08-01T07:21:29;11.30;;;3.55;;
51907;SDS011;39320;53.214;6.556;2022-08-01T07:23:55;9.57;;;2.70;;
51907;SDS011;39320;53.214;6.556;2022-08-01T07:26:21;8.63;;;3.60;;
51907;SDS011;39320;53.214;6.556;2022-08-01T07:28:46;9.38;;;3.17;;
51907;SDS011;39320;53.214;6.556;2022-08-01T07:31:12;12.68;;;3.90;;
51907;SDS011;39320;53.214;6.556;2022-08-01T07:33:38;13.50;;;3.17;;
51907;SDS011;39320;53.214;6.556;2022-08-01T07:36:04;12.50;;;2.92;;
51907;SDS011;39320;53.214;6.556;2022-08-01T07:38:29;11.50;;;3.10;;
51907;SDS011;39320;53.214;6.556;2022-08-01T07:40:55;10.80;;;2.83;;
51907;SDS011;39320;53.214;6.556;2022-08-01T07:43:21;11.25;;;3.25;;
51907;SDS011;39320;53.214;6.556;2022-08-01T07:45:47;12.85;;;3.50;;
51907;SDS011;39320;53.214;6.556;2022-08-01T07:48:13;10.48;;;3.42;;
51907;SDS011;39320;53.214;6.556;2022-08-01T07:50:39;13.23;;;3.13;;
51907;SDS011;39320;53.214;6.556;2022-08-01T07:53:04;9.93;;;3.10;;
51907;SDS011;39320;53.214;6.556;2022-08-01T07:55:30;9.30;;;2.50;;
51907;SDS011;39320;53.214;6.556;2022-08-01T07:57:56;14.18;;;2.75;;
51907;SDS011;39320;53.214;6.556;2022-08-01T08:00:23;9.07;;;2.55;;
51907;SDS011;39320;53.214;6.556;2022-08-01T08:02:49;9.48;;;2.33;;
51907;SDS011;39320;53.214;6.556;2022-08-01T08:05:15;6.90;;;2.05;;
51907;SDS011;39320;53.214;6.556;2022-08-01T08:07:40;11.15;;;2.60;;
51907;SDS011;39320;53.214;6.556;2022-08-01T08:10:06;7.55;;;2.38;;
51907;SDS011;39320;53.214;6.556;2022-08-01T08:12:32;13.90;;;3.13;;
51907;SDS011;39320;53.214;6.556;2022-08-01T08:14:58;9.75;;;2.90;;
51907;SDS011;39320;53.214;6.556;2022-08-01T08:17:25;5.60;;;2.13;;
51907;SDS011;39320;53.214;6.556;2022-08-01T08:19:51;10.80;;;3.35;;
51907;SDS011;39320;53.214;6.556;2022-08-01T08:22:16;6.97;;;2.40;;
51907;SDS011;39320;53.214;6.556;2022-08-01T08:24:42;8.27;;;2.22;;
51907;SDS011;39320;53.214;6.556;2022-08-01T08:27:09;6.45;;;2.00;;
51907;SDS011;39320;53.214;6.556;2022-08-01T08:29:34;13.30;;;2.38;;
51907;SDS011;39320;53.214;6.556;2022-08-01T08:32:09;12.32;;;2.60;;
51907;SDS011;39320;53.214;6.556;2022-08-01T08:34:35;6.45;;;2.33;;
51907;SDS011;39320;53.214;6.556;2022-08-01T08:37:00;8.13;;;2.00;;
51907;SDS011;39320;53.214;6.556;2022-08-01T08:39:26;7.35;;;2.33;;
51907;SDS011;39320;53.214;6.556;2022-08-01T08:41:54;9.38;;;2.00;;
51907;SDS011;39320;53.214;6.556;2022-08-01T08:44:22;5.18;;;2.20;;
51907;SDS011;39320;53.214;6.556;2022-08-01T08:46:49;9.23;;;2.05;;
51907;SDS011;39320;53.214;6.556;2022-08-01T08:49:25;8.90;;;2.33;;
51907;SDS011;39320;53.214;6.556;2022-08-01T08:51:53;7.10;;;2.03;;
51907;SDS011;39320;53.214;6.556;2022-08-01T08:54:24;10.82;;;2.22;;
51907;SDS011;39320;53.214;6.556;2022-08-01T08:56:51;6.65;;;2.17;;
51907;SDS011;39320;53.214;6.556;2022-08-01T08:59:18;12.27;;;2.75;;
51907;SDS011;39320;53.214;6.556;2022-08-01T09:01:46;9.85;;;2.25;;
51907;SDS011;39320;53.214;6.556;2022-08-01T09:04:12;8.05;;;2.10;;
51907;SDS011;39320;53.214;6.556;2022-08-01T09:06:39;8.40;;;2.67;;
51907;SDS011;39320;53.214;6.556;2022-08-01T09:09:05;7.50;;;2.88;;
51907;SDS011;39320;53.214;6.556;2022-08-01T09:11:33;8.05;;;2.55;;
51907;SDS011;39320;53.214;6.556;2022-08-01T09:16:28;8.50;;;2.08;;
51907;SDS011;39320;53.214;6.556;2022-08-01T09:18:54;6.95;;;2.05;;
51907;SDS011;39320;53.214;6.556;2022-08-01T09:21:32;7.70;;;1.80;;
51907;SDS011;39320;53.214;6.556;2022-08-01T09:23:58;9.02;;;2.17;;
51907;SDS011;39320;53.214;6.556;2022-08-01T09:26:34;7.57;;;1.83;;
51907;SDS011;39320;53.214;6.556;2022-08-01T09:29:02;6.15;;;1.80;;
51907;SDS011;39320;53.214;6.556;2022-08-01T09:31:38;8.07;;;2.40;;
51907;SDS011;39320;53.214;6.556;2022-08-01T09:34:07;9.10;;;2.50;;
51907;SDS011;39320;53.214;6.556;2022-08-01T09:36:53;7.00;;;1.90;;
51907;SDS011;39320;53.214;6.556;2022-08-01T09:41:53;9.70;;;2.55;;
51907;SDS011;39320;53.214;6.556;2022-08-01T09:44:26;5.93;;;1.95;;
51907;SDS011;39320;53.214;6.556;2022-08-01T09:49:32;6.07;;;1.73;;
51907;SDS011;39320;53.214;6.556;2022-08-01T09:52:00;4.68;;;2.20;;
51907;SDS011;39320;53.214;6.556;2022-08-01T09:54:39;7.03;;;2.05;;
51907;SDS011;39320;53.214;6.556;2022-08-01T09:57:07;5.18;;;2.10;;
51907;SDS011;39320;53.214;6.556;2022-08-01T09:59:34;8.75;;;2.08;;
51907;SDS011;39320;53.214;6.556;2022-08-01T10:02:02;8.80;;;2.00;;
51907;SDS011;39320;53.214;6.556;2022-08-01T10:04:28;9.75;;;2.38;;
51907;SDS011;39320;53.214;6.556;2022-08-01T10:06:57;12.15;;;2.42;;
51907;SDS011;39320;53.214;6.556;2022-08-01T10:09:31;6.20;;;2.08;;
51907;SDS011;39320;53.214;6.556;2022-08-01T10:11:59;6.72;;;1.75;;
51907;SDS011;39320;53.214;6.556;2022-08-01T10:14:27;5.75;;;2.05;;
51907;SDS011;39320;53.214;6.556;2022-08-01T10:16:55;5.63;;;1.85;;
51907;SDS011;39320;53.214;6.556;2022-08-01T10:19:23;10.05;;;1.83;;
51907;SDS011;39320;53.214;6.556;2022-08-01T10:21:52;6.07;;;1.77;;
51907;SDS011;39320;53.214;6.556;2022-08-01T10:24:22;5.40;;;2.10;;
51907;SDS011;39320;53.214;6.556;2022-08-01T10:26:55;11.63;;;1.95;;
51907;SDS011;39320;53.214;6.556;2022-08-01T10:29:28;6.82;;;1.90;;
51907;SDS011;39320;53.214;6.556;2022-08-01T10:31:59;6.43;;;1.80;;
51907;SDS011;39320;53.214;6.556;2022-08-01T10:34:25;5.57;;;1.88;;
51907;SDS011;39320;53.214;6.556;2022-08-01T10:36:52;7.60;;;1.85;;
51907;SDS011;39320;53.214;6.556;2022-08-01T10:39:18;4.90;;;1.48;;
51907;SDS011;39320;53.214;6.556;2022-08-01T10:41:45;5.50;;;2.20;;
51907;SDS011;39320;53.214;6.556;2022-08-01T10:44:12;5.57;;;2.28;;
51907;SDS011;39320;53.214;6.556;2022-08-01T10:46:38;6.68;;;1.98;;
51907;SDS011;39320;53.214;6.556;2022-08-01T10:49:10;11.27;;;2.13;;
51907;SDS011;39320;53.214;6.556;2022-08-01T10:51:38;8.82;;;1.90;;
51907;SDS011;39320;53.214;6.556;2022-08-01T10:54:06;6.45;;;1.83;;
51907;SDS011;39320;53.214;6.556;2022-08-01T10:56:54;7.63;;;1.92;;
51907;SDS011;39320;53.214;6.556;2022-08-01T10:59:22;7.57;;;1.83;;
51907;SDS011;39320;53.214;6.556;2022-08-01T11:01:56;5.30;;;1.38;;
51907;SDS011;39320;53.214;6.556;2022-08-01T11:07:11;7.00;;;1.42;;
51907;SDS011;39320;53.214;6.556;2022-08-01T11:09:43;5.55;;;1.75;;
51907;SDS011;39320;53.214;6.556;2022-08-01T11:12:14;8.05;;;1.70;;
51907;SDS011;39320;53.214;6.556;2022-08-01T11:17:39;6.75;;;2.03;;
51907;SDS011;39320;53.214;6.556;2022-08-01T11:20:12;9.02;;;1.90;;
51907;SDS011;39320;53.214;6.556;2022-08-01T11:25:24;6.03;;;1.65;;
51907;SDS011;39320;53.214;6.556;2022-08-01T11:30:45;5.97;;;1.92;;
51907;SDS011;39320;53.214;6.556;2022-08-01T11:33:47;6.53;;;1.65;;
51907;SDS011;39320;53.214;6.556;2022-08-01T11:38:39;7.72;;;1.58;;
51907;SDS011;39320;53.214;6.556;2022-08-01T11:41:13;5.78;;;2.22;;
51907;SDS011;39320;53.214;6.556;2022-08-01T11:46:49;8.32;;;2.00;;
51907;SDS011;39320;53.214;6.556;2022-08-01T11:52:00;5.93;;;1.73;;
51907;SDS011;39320;53.214;6.556;2022-08-01T11:54:31;4.75;;;1.50;;
51907;SDS011;39320;53.214;6.556;2022-08-01T11:57:04;10.35;;;2.15;;
51907;SDS011;39320;53.214;6.556;2022-08-01T11:59:38;4.40;;;1.45;;
51907;SDS011;39320;53.214;6.556;2022-08-01T12:02:25;7.20;;;1.42;;
51907;SDS011;39320;53.214;6.556;2022-08-01T12:04:53;5.90;;;1.27;;
51907;SDS011;39320;53.214;6.556;2022-08-01T12:07:22;4.78;;;1.48;;
51907;SDS011;39320;53.214;6.556;2022-08-01T12:09:56;7.30;;;1.63;;
51907;SDS011;39320;53.214;6.556;2022-08-01T12:12:46;5.40;;;1.55;;
51907;SDS011;39320;53.214;6.556;2022-08-01T12:15:14;4.55;;;1.60;;
51907;SDS011;39320;53.214;6.556;2022-08-01T12:17:41;11.30;;;1.70;;
51907;SDS011;39320;53.214;6.556;2022-08-01T12:20:12;7.50;;;1.35;;
51907;SDS011;39320;53.214;6.556;2022-08-01T12:22:40;6.45;;;1.40;;
51907;SDS011;39320;53.214;6.556;2022-08-01T12:27:34;5.03;;;1.65;;
51907;SDS011;39320;53.214;6.556;2022-08-01T12:30:00;5.40;;;1.70;;
51907;SDS011;39320;53.214;6.556;2022-08-01T12:32:32;4.25;;;1.70;;
51907;SDS011;39320;53.214;6.556;2022-08-01T12:35:35;6.40;;;1.60;;
51907;SDS011;39320;53.214;6.556;2022-08-01T12:38:00;8.52;;;2.05;;
51907;SDS011;39320;53.214;6.556;2022-08-01T12:40:32;4.65;;;1.30;;
51907;SDS011;39320;53.214;6.556;2022-08-01T12:43:00;8.43;;;1.95;;
51907;SDS011;39320;53.214;6.556;2022-08-01T12:45:33;4.72;;;1.58;;
51907;SDS011;39320;53.214;6.556;2022-08-01T12:48:13;5.07;;;1.33;;
51907;SDS011;39320;53.214;6.556;2022-08-01T12:50:41;6.03;;;1.80;;
51907;SDS011;39320;53.214;6.556;2022-08-01T12:53:12;4.75;;;1.30;;
51907;SDS011;39320;53.214;6.556;2022-08-01T12:55:48;7.70;;;1.42;;
51907;SDS011;39320;53.214;6.556;2022-08-01T12:58:15;6.30;;;1.88;;
51907;SDS011;39320;53.214;6.556;2022-08-01T13:00:42;7.22;;;1.45;;
51907;SDS011;39320;53.214;6.556;2022-08-01T13:03:14;7.25;;;1.40;;
51907;SDS011;39320;53.214;6.556;2022-08-01T13:08:13;6.13;;;1.98;;
51907;SDS011;39320;53.214;6.556;2022-08-01T13:10:40;5.03;;;1.40;;
51907;SDS011;39320;53.214;6.556;2022-08-01T13:13:07;7.82;;;1.75;;
51907;SDS011;39320;53.214;6.556;2022-08-01T13:15:34;6.97;;;1.52;;
51907;SDS011;39320;53.214;6.556;2022-08-01T13:18:24;7.50;;;2.10;;
51907;SDS011;39320;53.214;6.556;2022-08-01T13:21:13;6.43;;;1.70;;
51907;SDS011;39320;53.214;6.556;2022-08-01T13:29:09;4.35;;;1.42;;
51907;SDS011;39320;53.214;6.556;2022-08-01T13:31:36;5.82;;;1.40;;
51907;SDS011;39320;53.214;6.556;2022-08-01T13:34:03;4.32;;;1.48;;
51907;SDS011;39320;53.214;6.556;2022-08-01T13:36:29;6.10;;;2.00;;
51907;SDS011;39320;53.214;6.556;2022-08-01T13:38:56;6.40;;;1.33;;
51907;SDS011;39320;53.214;6.556;2022-08-01T13:41:41;5.43;;;1.27;;
51907;SDS011;39320;53.214;6.556;2022-08-01T13:44:07;5.40;;;1.27;;
51907;SDS011;39320;53.214;6.556;2022-08-01T13:46:34;3.72;;;1.65;;
51907;SDS011;39320;53.214;6.556;2022-08-01T13:49:02;6.45;;;1.80;;
51907;SDS011;39320;53.214;6.556;2022-08-01T13:51:27;5.60;;;1.55;;
51907;SDS011;39320;53.214;6.556;2022-08-01T13:53:54;3.75;;;1.70;;
51907;SDS011;39320;53.214;6.556;2022-08-01T13:56:20;5.03;;;1.55;;
51907;SDS011;39320;53.214;6.556;2022-08-01T13:58:45;5.78;;;1.40;;
51907;SDS011;39320;53.214;6.556;2022-08-01T14:01:11;5.15;;;1.75;;
51907;SDS011;39320;53.214;6.556;2022-08-01T14:03:37;7.10;;;1.70;;
51907;SDS011;39320;53.214;6.556;2022-08-01T14:06:03;7.93;;;1.35;;
51907;SDS011;39320;53.214;6.556;2022-08-01T14:08:29;5.38;;;1.40;;
51907;SDS011;39320;53.214;6.556;2022-08-01T14:10:55;5.57;;;1.35;;
51907;SDS011;39320;53.214;6.556;2022-08-01T14:13:24;4.18;;;1.38;;
51907;SDS011;39320;53.214;6.556;2022-08-01T14:15:50;4.10;;;1.42;;
51907;SDS011;39320;53.214;6.556;2022-08-01T14:18:17;6.22;;;1.77;;
51907;SDS011;39320;53.214;6.556;2022-08-01T14:20:42;6.13;;;1.55;;
51907;SDS011;39320;53.214;6.556;2022-08-01T14:23:09;3.53;;;1.30;;
51907;SDS011;39320;53.214;6.556;2022-08-01T14:25:40;4.25;;;1.77;;
51907;SDS011;39320;53.214;6.556;2022-08-01T14:28:06;6.93;;;1.80;;
51907;SDS011;39320;53.214;6.556;2022-08-01T14:30:32;6.07;;;2.35;;
51907;SDS011;39320;53.214;6.556;2022-08-01T14:32:59;9.75;;;2.25;;
51907;SDS011;39320;53.214;6.556;2022-08-01T14:35:24;6.78;;;2.13;;
51907;SDS011;39320;53.214;6.556;2022-08-01T14:37:50;6.18;;;2.05;;
51907;SDS011;39320;53.214;6.556;2022-08-01T14:40:16;6.43;;;1.95;;
51907;SDS011;39320;53.214;6.556;2022-08-01T14:42:42;4.47;;;1.58;;
51907;SDS011;39320;53.214;6.556;2022-08-01T14:45:11;5.03;;;1.55;;
51907;SDS011;39320;53.214;6.556;2022-08-01T14:47:38;5.63;;;1.73;;
51907;SDS011;39320;53.214;6.556;2022-08-01T14:50:06;8.70;;;2.20;;
51907;SDS011;39320;53.214;6.556;2022-08-01T14:52:37;5.80;;;2.33;;
51907;SDS011;39320;53.214;6.556;2022-08-01T14:55:04;5.20;;;1.85;;
51907;SDS011;39320;53.214;6.556;2022-08-01T14:57:35;5.93;;;1.95;;
51907;SDS011;39320;53.214;6.556;2022-08-01T15:00:03;6.15;;;2.13;;
51907;SDS011;39320;53.214;6.556;2022-08-01T15:02:30;5.25;;;1.60;;
51907;SDS011;39320;53.214;6.556;2022-08-01T15:04:56;5.57;;;1.95;;
51907;SDS011;39320;53.214;6.556;2022-08-01T15:07:21;4.90;;;1.55;;
51907;SDS011;39320;53.214;6.556;2022-08-01T15:09:47;5.53;;;1.75;;
51907;SDS011;39320;53.214;6.556;2022-08-01T15:12:13;6.05;;;1.65;;
51907;SDS011;39320;53.214;6.556;2022-08-01T15:14:39;6.93;;;1.92;;
51907;SDS011;39320;53.214;6.556;2022-08-01T15:19:40;4.95;;;1.42;;
51907;SDS011;39320;53.214;6.556;2022-08-01T15:22:06;7.53;;;2.10;;
51907;SDS011;39320;53.214;6.556;2022-08-01T15:24:32;11.30;;;2.50;;
51907;SDS011;39320;53.214;6.556;2022-08-01T15:26:58;6.10;;;2.00;;
51907;SDS011;39320;53.214;6.556;2022-08-01T15:29:24;4.22;;;2.08;;
51907;SDS011;39320;53.214;6.556;2022-08-01T15:31:50;9.38;;;2.30;;
51907;SDS011;39320;53.214;6.556;2022-08-01T15:34:16;7.00;;;2.05;;
51907;SDS011;39320;53.214;6.556;2022-08-01T15:36:41;4.05;;;1.88;;
51907;SDS011;39320;53.214;6.556;2022-08-01T15:39:08;7.53;;;1.85;;
51907;SDS011;39320;53.214;6.556;2022-08-01T15:41:35;5.60;;;1.75;;
51907;SDS011;39320;53.214;6.556;2022-08-01T15:44:00;7.97;;;2.42;;
51907;SDS011;39320;53.214;6.556;2022-08-01T15:46:26;5.35;;;1.90;;
51907;SDS011;39320;53.214;6.556;2022-08-01T15:48:52;4.40;;;1.77;;